< < Back
Terminal Aerodrome Forecast


Current Version              Previous Versions:   1  2  3  4  5  6  7  8  9  

Terminal Aerodrome Forecast

918
FTUS42 KJAX 250529
TAFGNV
TAF
KGNV 250529Z 2506/2606 09004KT P6SM FEW080 SCT250
     FM251500 11010KT P6SM SCT060
     FM260100 11005KT P6SM FEW250=

Latest METAR

994
SAUS70 KWBC 260000 RRI
MTRGNV
METAR KGNV 252353Z 10007KT 10SM CLR 27/13 A3016 RMK AO2 SLP211 T02670133
10317 20267 56003 $


USA.gov is the U.S. government's official web portal to all federal, state and local government web resources and services.